createdAt,value
2018-01-24T00:01:08.972Z,7.60
2018-01-24T00:03:38.595Z,7.60
2018-01-24T00:06:05.508Z,7.60
2018-01-24T00:08:33.344Z,7.70
2018-01-24T00:11:01.021Z,7.70
2018-01-24T00:13:28.723Z,7.70
2018-01-24T00:15:55.630Z,7.70
2018-01-24T00:18:23.336Z,7.80
2018-01-24T00:20:51.144Z,7.80
2018-01-24T00:23:18.077Z,7.80
2018-01-24T00:25:44.986Z,7.90
2018-01-24T00:28:11.916Z,7.90
2018-01-24T00:30:38.833Z,8.00
2018-01-24T00:33:06.684Z,8.00
2018-01-24T00:35:35.509Z,8.10
2018-01-24T00:38:05.111Z,8.30
2018-01-24T00:40:32.024Z,8.20
2018-01-24T00:42:59.869Z,8.20
2018-01-24T00:45:26.781Z,8.20
2018-01-24T00:47:53.716Z,8.20
2018-01-24T00:50:20.632Z,8.20
2018-01-24T00:52:47.588Z,8.30
2018-01-24T00:55:15.400Z,8.40
2018-01-24T00:57:42.337Z,8.40
2018-01-24T01:00:09.281Z,8.40
2018-01-24T01:02:36.188Z,8.50
2018-01-24T01:05:04.029Z,8.50
2018-01-24T01:07:31.711Z,8.50
2018-01-24T01:09:58.647Z,8.60
2018-01-24T01:12:26.324Z,8.60
2018-01-24T01:14:53.262Z,8.60
2018-01-24T01:17:20.172Z,8.60
2018-01-24T01:19:47.121Z,8.70
2018-01-24T01:22:14.032Z,8.80
2018-01-24T01:24:40.988Z,8.90
2018-01-24T01:27:07.900Z,8.90
2018-01-24T01:29:34.831Z,8.90
2018-01-24T01:32:01.752Z,8.90
2018-01-24T01:34:29.461Z,9.00
2018-01-24T01:36:56.409Z,9.00
2018-01-24T01:39:23.325Z,9.00
2018-01-24T01:41:50.235Z,9.00
2018-01-24T01:44:17.171Z,9.10
2018-01-24T01:46:44.089Z,9.10
2018-01-24T01:49:11.028Z,9.10
2018-01-24T01:51:37.938Z,9.10
2018-01-24T01:54:05.636Z,9.10
2018-01-24T01:56:32.549Z,9.20
2018-01-24T01:58:59.498Z,9.20
2018-01-24T02:01:26.419Z,9.10
2018-01-24T02:03:55.028Z,9.10
2018-01-24T02:06:21.940Z,9.10
2018-01-24T02:08:50.779Z,9.10
2018-01-24T02:11:17.694Z,9.00
2018-01-24T02:13:45.393Z,9.10
2018-01-24T02:16:12.302Z,9.10
2018-01-24T02:18:39.993Z,9.10
2018-01-24T02:21:07.816Z,9.10
2018-01-24T02:23:35.528Z,9.20
2018-01-24T02:26:02.431Z,9.10
2018-01-24T02:28:30.140Z,9.20
2018-01-24T02:30:57.986Z,9.20
2018-01-24T02:33:24.888Z,9.20
2018-01-24T02:35:51.813Z,9.20
2018-01-24T02:41:18.837Z,9.20
2018-01-24T02:43:45.753Z,9.20
2018-01-24T02:46:13.455Z,9.20
2018-01-24T02:48:40.364Z,9.20
2018-01-24T02:51:08.080Z,9.30
2018-01-24T02:53:34.984Z,9.30
2018-01-24T02:56:01.904Z,9.30
2018-01-24T02:58:29.608Z,9.30
2018-01-24T03:00:56.525Z,9.30
2018-01-24T03:03:24.239Z,9.30
2018-01-24T03:05:51.144Z,9.30
2018-01-24T03:08:18.083Z,9.40
2018-01-24T03:10:45.763Z,9.40
2018-01-24T03:13:12.698Z,9.40
2018-01-24T03:15:39.612Z,9.40
2018-01-24T03:18:06.557Z,9.40
2018-01-24T03:20:35.461Z,9.50
2018-01-24T03:23:03.157Z,9.50
2018-01-24T03:25:30.069Z,9.50
2018-01-24T03:27:57.771Z,9.60
2018-01-24T03:30:24.676Z,9.50
2018-01-24T03:32:52.387Z,9.60
2018-01-24T03:35:19.302Z,9.60
2018-01-24T03:37:47.180Z,9.60
2018-01-24T03:40:14.087Z,9.70
2018-01-24T03:42:42.800Z,9.70
2018-01-24T03:45:09.708Z,9.70
2018-01-24T03:47:36.644Z,9.70
2018-01-24T03:50:04.528Z,9.70
2018-01-24T03:52:32.231Z,9.70
2018-01-24T03:54:59.140Z,9.70
2018-01-24T03:57:26.857Z,9.70
2018-01-24T03:59:53.772Z,9.70
2018-01-24T04:02:20.699Z,9.70
2018-01-24T04:04:48.374Z,9.70
2018-01-24T04:07:15.313Z,9.70
2018-01-24T04:09:42.236Z,9.70
2018-01-24T04:12:09.957Z,9.70
2018-01-24T04:14:36.868Z,9.60
2018-01-24T04:17:03.799Z,9.60
2018-01-24T04:19:31.480Z,9.60
2018-01-24T04:21:58.420Z,9.60
2018-01-24T04:24:25.327Z,9.60
2018-01-24T04:26:53.033Z,9.60
2018-01-24T04:29:19.946Z,9.50
2018-01-24T04:31:47.654Z,9.50
2018-01-24T04:34:14.571Z,9.50
2018-01-24T04:36:41.512Z,9.50
2018-01-24T04:39:08.427Z,9.50
2018-01-24T04:41:36.319Z,9.50
2018-01-24T04:44:03.232Z,9.50
2018-01-24T04:46:30.167Z,9.50
2018-01-24T04:48:57.084Z,9.40
2018-01-24T04:51:24.018Z,9.40
2018-01-24T04:53:51.953Z,9.30
2018-01-24T04:56:19.671Z,9.20
2018-01-24T04:58:46.588Z,9.20
2018-01-24T05:01:13.524Z,9.20
2018-01-24T05:03:40.503Z,9.20
2018-01-24T05:06:07.464Z,9.20
2018-01-24T05:08:34.382Z,9.20
2018-01-24T05:11:01.319Z,9.20
2018-01-24T05:13:28.222Z,9.20
2018-01-24T05:15:55.910Z,9.20
2018-01-24T05:18:22.828Z,9.20
2018-01-24T05:20:50.723Z,9.20
2018-01-24T05:23:17.639Z,9.20
2018-01-24T05:25:45.339Z,9.20
2018-01-24T05:28:12.256Z,9.20
2018-01-24T05:30:39.963Z,9.20
2018-01-24T05:33:06.879Z,9.20
2018-01-24T05:35:33.807Z,9.20
2018-01-24T05:38:01.479Z,9.20
2018-01-24T05:40:28.408Z,9.20
2018-01-24T05:42:56.081Z,9.30
2018-01-24T05:45:23.788Z,9.30
2018-01-24T05:47:50.692Z,9.20
2018-01-24T05:50:17.620Z,9.30
2018-01-24T05:52:47.220Z,9.30
2018-01-24T05:55:14.923Z,9.20
2018-01-24T05:57:41.832Z,9.20
2018-01-24T06:00:09.532Z,9.30
2018-01-24T06:02:36.463Z,9.20
2018-01-24T06:05:04.324Z,9.30
2018-01-24T06:07:31.240Z,9.30
2018-01-24T06:09:58.173Z,9.40
2018-01-24T06:12:25.085Z,9.40
2018-01-24T06:14:53.046Z,9.40
2018-01-24T06:17:19.962Z,9.50
2018-01-24T06:19:46.904Z,9.50
2018-01-24T06:22:14.580Z,9.50
2018-01-24T06:24:41.489Z,9.50
2018-01-24T06:27:09.154Z,9.60
2018-01-24T06:29:36.276Z,9.60
2018-01-24T06:32:03.185Z,9.60
2018-01-24T06:34:30.127Z,9.60
2018-01-24T06:36:57.040Z,9.60
2018-01-24T06:39:24.905Z,9.60
2018-01-24T06:41:51.813Z,9.60
2018-01-24T06:44:18.744Z,9.60
2018-01-24T06:46:45.650Z,9.60
2018-01-24T06:49:12.583Z,9.60
2018-01-24T06:51:39.516Z,9.60
2018-01-24T06:54:07.224Z,9.60
2018-01-24T06:56:34.134Z,9.60
2018-01-24T06:59:01.074Z,9.60
2018-01-24T07:01:29.756Z,9.60
2018-01-24T07:03:57.468Z,9.60
2018-01-24T07:06:24.405Z,9.60
2018-01-24T07:08:51.356Z,9.60
2018-01-24T07:11:18.316Z,9.60
2018-01-24T07:13:57.142Z,9.50
2018-01-24T07:16:24.103Z,9.40
2018-01-24T07:18:51.011Z,9.40
2018-01-24T07:21:17.934Z,9.40
2018-01-24T07:23:45.783Z,9.50
2018-01-24T07:26:12.703Z,9.50
2018-01-24T07:28:40.399Z,9.40
2018-01-24T07:31:07.308Z,9.40
2018-01-24T07:33:34.253Z,9.30
2018-01-24T07:36:02.950Z,9.30
2018-01-24T07:38:30.664Z,9.30
2018-01-24T07:40:57.567Z,9.30
2018-01-24T07:43:26.262Z,9.30
2018-01-24T07:45:53.179Z,9.30
2018-01-24T07:48:20.888Z,9.40
2018-01-24T07:50:47.800Z,9.30
2018-01-24T07:53:16.508Z,9.40
2018-01-24T07:55:43.430Z,9.50
2018-01-24T07:58:11.128Z,9.50
2018-01-24T08:00:39.052Z,9.60
2018-01-24T08:03:06.748Z,9.60
2018-01-24T08:05:34.548Z,9.50
2018-01-24T08:08:01.476Z,9.60
2018-01-24T08:10:28.398Z,9.70
2018-01-24T08:12:55.295Z,9.70
2018-01-24T08:15:22.227Z,9.90
2018-01-24T08:17:49.185Z,10.00
2018-01-24T08:20:16.115Z,10.00
2018-01-24T08:22:43.053Z,10.00
2018-01-24T08:25:09.961Z,9.80
2018-01-24T08:27:36.892Z,9.70
2018-01-24T08:30:03.804Z,9.80
2018-01-24T08:32:30.732Z,9.80
2018-01-24T08:34:57.648Z,9.80
2018-01-24T08:37:24.587Z,9.90
2018-01-24T08:39:51.501Z,9.90
2018-01-24T08:42:19.210Z,10.00
2018-01-24T08:44:46.120Z,10.00
2018-01-24T08:47:13.069Z,10.00
2018-01-24T08:49:40.065Z,10.00
2018-01-24T08:52:07.110Z,10.10
2018-01-24T08:54:34.089Z,10.10
2018-01-24T08:57:02.600Z,10.10
2018-01-24T08:59:29.652Z,10.10
2018-01-24T09:01:56.681Z,10.10
2018-01-24T09:04:23.719Z,10.10
2018-01-24T09:06:51.635Z,10.10
2018-01-24T09:09:18.599Z,10.20
2018-01-24T09:11:45.588Z,10.20
2018-01-24T09:14:13.322Z,10.10
2018-01-24T09:16:41.277Z,10.10
2018-01-24T09:19:08.252Z,10.10
2018-01-24T09:21:35.292Z,10.10
2018-01-24T09:24:02.201Z,10.10
2018-01-24T09:26:29.180Z,10.10
2018-01-24T09:28:56.147Z,10.10
2018-01-24T09:31:23.161Z,10.20
2018-01-24T09:33:50.133Z,10.20
2018-01-24T09:36:17.911Z,10.20
2018-01-24T09:38:45.627Z,10.20
2018-01-24T09:41:14.578Z,10.20
2018-01-24T09:43:41.852Z,10.20
2018-01-24T09:46:08.803Z,10.20
2018-01-24T09:48:35.720Z,10.30
2018-01-24T09:51:02.660Z,10.30
2018-01-24T09:53:30.344Z,10.40
2018-01-24T09:55:57.288Z,10.40
2018-01-24T09:58:24.208Z,10.40
2018-01-24T10:00:51.917Z,10.50
2018-01-24T10:03:18.837Z,10.40
2018-01-24T10:05:45.784Z,10.40
2018-01-24T10:08:12.693Z,10.50
2018-01-24T10:10:40.408Z,10.50
2018-01-24T10:13:07.319Z,10.50
2018-01-24T10:15:35.196Z,10.50
2018-01-24T10:18:03.052Z,10.60
2018-01-24T10:20:30.009Z,10.50
2018-01-24T10:22:56.922Z,10.60
2018-01-24T10:25:24.624Z,10.70
2018-01-24T10:27:51.536Z,10.70
2018-01-24T10:30:19.236Z,10.80
2018-01-24T10:32:46.162Z,10.80
2018-01-24T10:35:13.110Z,10.80
2018-01-24T10:37:41.031Z,10.90
2018-01-24T10:40:08.952Z,10.90
2018-01-24T10:42:36.784Z,10.90
2018-01-24T10:45:04.483Z,10.90
2018-01-24T10:47:31.403Z,10.90
2018-01-24T10:49:59.292Z,11.00
2018-01-24T10:52:27.117Z,11.10
2018-01-24T10:54:54.824Z,11.30
2018-01-24T10:57:22.748Z,11.30
2018-01-24T10:59:50.597Z,11.30
2018-01-24T11:02:17.524Z,11.40
2018-01-24T11:04:44.462Z,11.40
2018-01-24T11:07:11.384Z,11.50
2018-01-24T11:09:38.326Z,11.50
2018-01-24T11:12:05.244Z,11.60
2018-01-24T11:14:32.961Z,11.70
2018-01-24T11:16:59.885Z,11.60
2018-01-24T11:19:27.848Z,11.70
2018-01-24T11:21:54.760Z,11.80
2018-01-24T11:24:22.476Z,11.70
2018-01-24T11:26:49.396Z,11.70
2018-01-24T11:29:16.343Z,11.70
2018-01-24T11:31:43.260Z,11.70
2018-01-24T11:34:10.974Z,11.80
2018-01-24T11:36:37.896Z,11.70
2018-01-24T11:39:04.836Z,11.80
2018-01-24T11:41:31.750Z,11.80
2018-01-24T11:43:59.464Z,11.80
2018-01-24T11:46:26.392Z,11.80
2018-01-24T11:48:53.333Z,11.80
2018-01-24T11:51:20.249Z,11.80
2018-01-24T11:53:48.968Z,11.80
2018-01-24T11:56:16.823Z,11.80
2018-01-24T11:58:43.772Z,11.80
2018-01-24T12:01:10.692Z,11.80
2018-01-24T12:03:38.404Z,11.80
2018-01-24T12:06:05.341Z,11.80
2018-01-24T12:08:32.294Z,11.80
2018-01-24T12:10:59.232Z,11.80
2018-01-24T12:13:27.184Z,11.90
2018-01-24T12:15:54.104Z,11.90
2018-01-24T12:18:21.816Z,12.00
2018-01-24T12:20:48.733Z,11.90
2018-01-24T12:23:15.704Z,12.10
2018-01-24T12:25:42.639Z,12.10
2018-01-24T12:28:14.453Z,12.20
2018-01-24T12:30:41.400Z,12.30
2018-01-24T12:33:09.080Z,12.40
2018-01-24T12:35:36.015Z,12.30
2018-01-24T12:38:03.852Z,12.30
2018-01-24T12:40:30.804Z,12.30
2018-01-24T12:42:58.488Z,12.30
2018-01-24T12:45:25.478Z,12.20
2018-01-24T12:47:52.372Z,12.20
2018-01-24T12:50:24.150Z,12.20
2018-01-24T12:52:51.988Z,12.20
2018-01-24T12:55:19.698Z,12.20
2018-01-24T12:57:46.637Z,12.10
2018-01-24T13:00:14.467Z,12.20
2018-01-24T13:02:42.167Z,12.20
2018-01-24T13:05:09.084Z,12.20
2018-01-24T13:07:36.035Z,12.30
2018-01-24T13:10:02.959Z,12.30
2018-01-24T13:12:29.908Z,12.30
2018-01-24T13:14:56.834Z,12.30
2018-01-24T13:17:24.536Z,12.30
2018-01-24T13:19:51.456Z,12.30
2018-01-24T13:22:19.161Z,12.30
2018-01-24T13:24:46.073Z,12.30
2018-01-24T13:27:14.895Z,12.30
2018-01-24T13:29:44.849Z,12.30
2018-01-24T13:32:11.764Z,12.30
2018-01-24T13:34:38.718Z,12.30
2018-01-24T13:37:05.668Z,12.40
2018-01-24T13:39:32.593Z,12.30
2018-01-24T13:42:00.575Z,12.40
2018-01-24T13:44:27.508Z,12.30
2018-01-24T13:46:55.423Z,12.30
2018-01-24T13:49:23.126Z,12.40
2018-01-24T13:51:50.036Z,12.30
2018-01-24T13:54:17.741Z,12.40
2018-01-24T13:56:47.707Z,12.30
2018-01-24T13:59:15.409Z,12.40
2018-01-24T14:01:42.344Z,12.30
2018-01-24T14:04:09.265Z,12.30
2018-01-24T14:06:37.982Z,12.40
2018-01-24T14:09:04.892Z,12.40
2018-01-24T14:11:31.855Z,12.30
2018-01-24T14:13:58.781Z,12.30
2018-01-24T14:16:27.493Z,12.40
2018-01-24T14:18:54.404Z,12.30
2018-01-24T14:21:24.775Z,12.40
2018-01-24T14:23:51.709Z,12.40
2018-01-24T14:26:18.661Z,12.40
2018-01-24T14:28:45.572Z,12.40
2018-01-24T14:31:13.272Z,12.40
2018-01-24T14:33:40.174Z,12.40
2018-01-24T14:36:07.875Z,12.40
2018-01-24T14:38:34.780Z,12.40
2018-01-24T14:41:03.494Z,12.40
2018-01-24T14:43:30.418Z,12.40
2018-01-24T14:45:57.364Z,12.40
2018-01-24T14:48:24.304Z,12.40
2018-01-24T14:50:53.008Z,12.40
2018-01-24T14:53:19.932Z,12.40
2018-01-24T14:55:48.601Z,12.40
2018-01-24T14:58:15.524Z,12.40
2018-01-24T15:00:43.459Z,12.40
2018-01-24T15:03:10.371Z,12.40
2018-01-24T15:05:37.316Z,12.40
2018-01-24T15:08:04.996Z,12.30
2018-01-24T15:10:31.957Z,12.40
2018-01-24T15:13:00.816Z,12.40
2018-01-24T15:15:28.515Z,12.40
2018-01-24T15:17:57.403Z,12.30
2018-01-24T15:20:24.316Z,12.40
2018-01-24T15:22:52.168Z,12.40
2018-01-24T15:25:19.844Z,12.40
2018-01-24T15:27:46.775Z,12.40
2018-01-24T15:30:13.679Z,12.40
2018-01-24T15:32:40.618Z,12.40
2018-01-24T15:35:07.530Z,12.40
2018-01-24T15:37:34.471Z,12.40
2018-01-24T15:40:01.385Z,12.40
2018-01-24T15:42:28.316Z,12.40
2018-01-24T15:44:55.228Z,12.40
2018-01-24T15:47:22.164Z,12.40
2018-01-24T15:49:49.091Z,12.40
2018-01-24T15:52:16.033Z,12.30
2018-01-24T15:54:43.712Z,12.30
2018-01-24T15:57:10.636Z,12.30
2018-01-24T15:59:39.308Z,12.30
2018-01-24T16:02:07.016Z,12.10
2018-01-24T16:04:34.936Z,12.10
2018-01-24T16:07:02.632Z,11.90
2018-01-24T16:09:29.543Z,11.80
2018-01-24T16:11:57.264Z,11.70
2018-01-24T16:14:24.215Z,11.70
2018-01-24T16:16:51.134Z,11.80
2018-01-24T16:19:18.062Z,11.90
2018-01-24T16:21:45.013Z,11.80
2018-01-24T16:24:11.924Z,11.90
2018-01-24T16:26:38.868Z,12.00
2018-01-24T16:29:06.539Z,12.00
2018-01-24T16:31:34.256Z,12.10
2018-01-24T16:34:01.170Z,12.10
2018-01-24T16:36:28.103Z,12.10
2018-01-24T16:38:55.009Z,12.10
2018-01-24T16:41:22.924Z,12.20
2018-01-24T16:43:49.836Z,12.20
2018-01-24T16:46:16.777Z,12.30
2018-01-24T16:48:43.710Z,12.30
2018-01-24T16:51:10.620Z,12.40
2018-01-24T16:53:37.569Z,12.40
2018-01-24T16:56:04.475Z,12.40
2018-01-24T16:58:34.567Z,12.40
2018-01-24T17:01:01.472Z,12.40
2018-01-24T17:03:28.413Z,12.40
2018-01-24T17:05:55.333Z,12.40
2018-01-24T17:08:22.272Z,12.60
2018-01-24T17:10:52.909Z,12.80
2018-01-24T17:13:19.846Z,12.80
2018-01-24T17:15:47.574Z,12.70
2018-01-24T17:18:14.504Z,12.70
2018-01-24T17:20:41.417Z,12.70
2018-01-24T17:23:08.352Z,12.70
2018-01-24T17:25:35.273Z,12.80
2018-01-24T17:28:06.314Z,12.80
2018-01-24T17:30:34.000Z,12.70
2018-01-24T17:33:00.934Z,12.70
2018-01-24T17:35:27.847Z,12.80
2018-01-24T17:37:55.556Z,12.80
2018-01-24T17:40:22.480Z,12.80
2018-01-24T17:42:50.725Z,12.80
2018-01-24T17:45:17.728Z,12.80
2018-01-24T17:47:45.379Z,12.90
2018-01-24T17:50:12.290Z,12.90
2018-01-24T17:52:39.248Z,12.90
2018-01-24T17:55:06.232Z,12.90
2018-01-24T17:57:33.200Z,12.90
2018-01-24T18:00:00.136Z,12.80
2018-01-24T18:02:27.087Z,12.80
2018-01-24T18:04:54.008Z,12.80
2018-01-24T18:07:21.873Z,12.80
2018-01-24T18:09:48.816Z,12.70
2018-01-24T18:12:16.853Z,12.80
2018-01-24T18:14:44.828Z,12.80
2018-01-24T18:17:12.754Z,12.70
2018-01-24T18:19:39.710Z,12.80
2018-01-24T18:22:06.664Z,12.80
2018-01-24T18:24:33.589Z,12.90
2018-01-24T18:27:00.558Z,12.90
2018-01-24T18:29:27.504Z,12.80
2018-01-24T18:31:54.466Z,12.80
2018-01-24T18:34:21.400Z,12.80
2018-01-24T18:36:48.352Z,12.80
2018-01-24T18:39:15.273Z,12.80
2018-01-24T18:41:42.997Z,12.70
2018-01-24T18:44:09.962Z,12.70
2018-01-24T18:46:37.659Z,12.70
2018-01-24T18:49:04.625Z,12.70
2018-01-24T18:51:31.600Z,12.80
2018-01-24T18:53:58.512Z,12.70
2018-01-24T18:56:25.460Z,12.70
2018-01-24T18:58:54.306Z,12.70
2018-01-24T19:01:22.043Z,12.60
2018-01-24T19:03:48.988Z,12.60
2018-01-24T19:06:15.946Z,12.50
2018-01-24T19:08:43.819Z,12.50
2018-01-24T19:11:11.567Z,12.40
2018-01-24T19:13:38.518Z,12.40
2018-01-24T19:16:05.455Z,12.40
2018-01-24T19:18:32.385Z,12.40
2018-01-24T19:21:00.235Z,12.40
2018-01-24T19:23:28.155Z,12.40
2018-01-24T19:25:55.860Z,12.40
2018-01-24T19:28:35.644Z,12.40
2018-01-24T19:31:02.600Z,12.30
2018-01-24T19:33:31.442Z,12.40
2018-01-24T19:35:58.353Z,12.50
2018-01-24T19:38:26.224Z,12.40
2018-01-24T19:40:53.184Z,12.40
2018-01-24T19:43:20.183Z,12.40
2018-01-24T19:45:48.055Z,12.40
2018-01-24T19:48:14.972Z,12.40
2018-01-24T19:50:43.681Z,12.40
2018-01-24T19:53:10.610Z,12.50
2018-01-24T19:55:37.585Z,12.50
2018-01-24T19:58:05.412Z,12.60
2018-01-24T20:00:32.376Z,12.50
2018-01-24T20:03:03.038Z,12.60
2018-01-24T20:05:30.073Z,12.60
2018-01-24T20:07:57.000Z,12.50
2018-01-24T20:10:24.884Z,12.60
2018-01-24T20:12:51.791Z,12.50
2018-01-24T20:15:19.500Z,9.00
2018-01-24T20:17:46.417Z,8.90
2018-01-24T20:20:13.369Z,8.70
2018-01-24T20:22:40.285Z,8.50
2018-01-24T20:25:07.228Z,8.40
2018-01-24T20:27:35.924Z,8.20
2018-01-24T20:30:04.758Z,8.20
2018-01-24T20:32:32.673Z,8.20
2018-01-24T20:34:59.615Z,8.10
2018-01-24T20:37:27.292Z,8.00
2018-01-24T20:39:54.222Z,7.90
2018-01-24T20:42:21.905Z,7.90
2018-01-24T20:44:48.828Z,7.90
2018-01-24T20:47:16.532Z,7.90
2018-01-24T20:49:43.459Z,7.80
2018-01-24T20:52:10.372Z,7.80
2018-01-24T20:54:38.072Z,7.70
2018-01-24T20:57:04.993Z,7.70
2018-01-24T20:59:32.700Z,7.60
2018-01-24T21:02:00.377Z,7.70
2018-01-24T21:04:27.362Z,7.70
2018-01-24T21:06:55.046Z,7.70
2018-01-24T21:09:23.000Z,7.70
2018-01-24T21:11:49.910Z,7.70
2018-01-24T21:14:16.865Z,7.70
2018-01-24T21:16:46.456Z,7.70
2018-01-24T21:19:17.153Z,7.60
2018-01-24T21:21:45.081Z,7.60
2018-01-24T21:24:12.790Z,7.50
2018-01-24T21:26:39.700Z,7.50
2018-01-24T21:29:29.203Z,7.50
2018-01-24T21:32:17.615Z,7.50
2018-01-24T21:34:56.236Z,7.50
2018-01-24T21:37:23.152Z,7.50
2018-01-24T21:39:50.260Z,7.50
2018-01-24T21:42:17.164Z,7.60
2018-01-24T21:44:44.106Z,7.50
2018-01-24T21:47:12.787Z,7.50
2018-01-24T21:49:40.476Z,7.50
2018-01-24T21:52:07.395Z,7.50
2018-01-24T21:54:35.087Z,7.50
2018-01-24T21:57:02.004Z,7.50
2018-01-24T21:59:29.699Z,7.40
2018-01-24T22:01:56.608Z,7.40
2018-01-24T22:04:24.331Z,7.50
2018-01-24T22:06:52.004Z,7.50
2018-01-24T22:09:18.936Z,7.50
2018-01-24T22:11:45.840Z,7.50
2018-01-24T22:14:12.775Z,7.40
2018-01-24T22:16:41.467Z,7.40
2018-01-24T22:19:08.405Z,7.40
2018-01-24T22:21:36.136Z,7.60
2018-01-24T22:24:03.128Z,7.60
2018-01-24T22:26:30.165Z,7.60
2018-01-24T22:28:57.989Z,7.60
2018-01-24T22:31:25.041Z,7.60
2018-01-24T22:33:52.000Z,7.60
2018-01-24T22:36:18.941Z,7.50
2018-01-24T22:38:46.007Z,7.50
2018-01-24T22:41:17.560Z,7.50
2018-01-24T22:43:45.288Z,7.40
2018-01-24T22:46:12.232Z,7.40
2018-01-24T22:48:39.200Z,7.40
2018-01-24T22:51:09.564Z,7.40
2018-01-24T22:53:36.495Z,7.50
2018-01-24T22:56:03.423Z,7.40
2018-01-24T22:58:31.125Z,7.40
2018-01-24T23:00:58.025Z,7.40
2018-01-24T23:03:25.725Z,7.30
2018-01-24T23:05:52.651Z,7.40
2018-01-24T23:08:19.563Z,7.30
2018-01-24T23:10:46.487Z,7.30
2018-01-24T23:13:13.394Z,7.30
2018-01-24T23:15:41.391Z,7.30
2018-01-24T23:18:08.347Z,7.30
2018-01-24T23:20:35.304Z,7.30
2018-01-24T23:23:02.239Z,7.30
2018-01-24T23:25:29.224Z,7.30
2018-01-24T23:27:56.172Z,7.30
2018-01-24T23:30:23.900Z,7.30
2018-01-24T23:32:50.856Z,7.20
2018-01-24T23:35:18.508Z,7.20
2018-01-24T23:37:45.474Z,7.20
2018-01-24T23:40:13.281Z,7.20
2018-01-24T23:42:41.124Z,7.20
2018-01-24T23:45:08.084Z,7.30
2018-01-24T23:47:35.069Z,7.30
2018-01-24T23:50:02.039Z,7.20
2018-01-24T23:52:30.652Z,7.20
2018-01-24T23:54:57.639Z,7.20
2018-01-24T23:57:27.329Z,7.20
2018-01-24T23:59:54.298Z,7.10
